Milan, Missouri
Current Conditions -  °F | °C
As of 11:55 AM on Monday 26 Jan 2015 (Local Time) from KIRK Reporting Station
Clear Clear  
Wind Chill:   Ceiling: Unl
Heat Index:   Visibility: 10mi
Dew Point:   Wind: 17mph
Humidity: 70%   Direction: 260°W
Pressure: 29.85"   Gusts: 23mph
Location:  40.2°N, 93.13°W
Report Text: KIRK 261755Z AUTO 26015G20KT 10SM CLR 06/01 A2985 RMK AO2 SLP118 T00560006 10056 21011
Loading
Personal Weather Stations






























Interactive Weather Map New forecast layout! Learn more

10-Day Weather Forecast

Advertisements
Track Severe Weather on mobile